Plaza, Washington
Current Conditions -  °F | °C
As of 7:53 AM on Friday 19 Dec 2014 (Local Time) from KGEG Reporting Station
Overcast Overcast  
Wind Chill: 33°   Ceiling: 2200
Heat Index: 40°   Visibility: 10mi
Dew Point: 39°   Wind: 10mph
Humidity: 97%   Direction: 160°SSE
Pressure: 29.85"   Gusts: NA
Location:  47.2196°N, 117.453°W
Report Text: KGEG 191553Z 16009KT 10SM SCT008 BKN022 OVC030 04/04 A2985 RMK AO2 SLP121 T00440039
Loading
Personal Weather Stations






























Interactive Weather Map New forecast layout! Learn more

10-Day Weather Forecast

Advertisements
Track Severe Weather on mobile